createdAt,value
2023-03-06T00:02:13.286Z,518.00
2023-03-06T00:06:13.297Z,521.00
2023-03-06T00:10:13.198Z,526.00
2023-03-06T00:14:13.140Z,520.00
2023-03-06T00:18:13.110Z,518.00
2023-03-06T00:22:13.122Z,519.00
2023-03-06T00:26:13.252Z,524.00
2023-03-06T00:30:13.445Z,526.00
2023-03-06T00:34:13.470Z,520.00
2023-03-06T00:38:13.355Z,523.00
2023-03-06T00:42:13.346Z,518.00
2023-03-06T00:46:13.547Z,519.00
2023-03-06T00:50:13.478Z,520.00
2023-03-06T00:54:13.468Z,522.00
2023-03-06T00:58:13.412Z,516.00
2023-03-06T01:02:13.352Z,523.00
2023-03-06T01:06:13.329Z,517.00
2023-03-06T01:10:13.217Z,524.00
2023-03-06T01:14:13.059Z,523.00
2023-03-06T01:18:13.064Z,523.00
2023-03-06T01:22:13.206Z,518.00
2023-03-06T01:26:13.368Z,521.00
2023-03-06T01:30:13.503Z,518.00
2023-03-06T01:34:13.686Z,521.00
2023-03-06T01:38:13.877Z,516.00
2023-03-06T01:42:14.001Z,521.00
2023-03-06T01:46:14.224Z,518.00
2023-03-06T01:50:14.343Z,516.00
2023-03-06T01:54:14.538Z,520.00
2023-03-06T01:58:14.766Z,510.00
2023-03-06T02:02:14.995Z,512.00
2023-03-06T02:06:15.157Z,518.00
2023-03-06T02:10:15.276Z,515.00
2023-03-06T02:14:15.511Z,518.00
2023-03-06T02:18:15.586Z,519.00
2023-03-06T02:22:15.684Z,518.00
2023-03-06T02:26:15.795Z,520.00
2023-03-06T02:30:15.972Z,519.00
2023-03-06T02:34:16.126Z,521.00
2023-03-06T02:38:16.317Z,519.00
2023-03-06T02:42:16.397Z,520.00
2023-03-06T02:46:16.515Z,518.00
2023-03-06T02:50:16.666Z,516.00
2023-03-06T02:54:16.788Z,512.00
2023-03-06T02:58:16.865Z,516.00
2023-03-06T03:02:16.983Z,515.00
2023-03-06T03:06:17.122Z,511.00
2023-03-06T03:10:17.232Z,517.00
2023-03-06T03:14:17.322Z,518.00
2023-03-06T03:18:17.475Z,516.00
2023-03-06T03:22:17.521Z,516.00
2023-03-06T03:26:17.714Z,516.00
2023-03-06T03:30:17.719Z,516.00
2023-03-06T03:34:17.779Z,511.00
2023-03-06T03:38:17.812Z,514.00
2023-03-06T03:42:17.852Z,513.00
2023-03-06T03:46:17.927Z,515.00
2023-03-06T03:50:17.980Z,515.00
2023-03-06T03:54:18.056Z,512.00
2023-03-06T03:58:18.106Z,510.00
2023-03-06T04:02:18.378Z,509.00
2023-03-06T04:06:18.270Z,517.00
2023-03-06T04:10:18.386Z,514.00
2023-03-06T04:14:18.434Z,514.00
2023-03-06T04:18:18.520Z,517.00
2023-03-06T04:22:18.631Z,514.00
2023-03-06T04:26:18.776Z,513.00
2023-03-06T04:30:18.889Z,510.00
2023-03-06T04:34:19.080Z,509.00
2023-03-06T04:38:19.228Z,510.00
2023-03-06T04:42:19.346Z,513.00
2023-03-06T04:46:19.483Z,514.00
2023-03-06T04:50:19.656Z,514.00
2023-03-06T04:54:19.817Z,514.00
2023-03-06T04:58:20.031Z,511.00
2023-03-06T05:02:20.029Z,508.00
2023-03-06T05:06:19.979Z,511.00
2023-03-06T05:10:19.912Z,513.00
2023-03-06T05:14:20.381Z,505.00
2023-03-06T05:18:19.827Z,510.00
2023-03-06T05:22:19.783Z,509.00
2023-03-06T05:26:19.771Z,505.00
2023-03-06T05:30:19.726Z,506.00
2023-03-06T05:34:19.689Z,512.00
2023-03-06T05:38:19.678Z,502.00
2023-03-06T05:42:19.823Z,508.00
2023-03-06T05:46:20.056Z,507.00
2023-03-06T05:50:20.396Z,509.00
2023-03-06T05:54:19.899Z,507.00
2023-03-06T05:58:19.883Z,505.00
2023-03-06T06:02:19.886Z,509.00
2023-03-06T06:06:19.807Z,505.00
2023-03-06T06:10:19.776Z,506.00
2023-03-06T06:14:19.737Z,505.00
2023-03-06T06:18:19.671Z,507.00
2023-03-06T06:22:19.647Z,510.00
2023-03-06T06:26:19.870Z,510.00
2023-03-06T06:30:20.039Z,512.00
2023-03-06T06:34:20.253Z,507.00
2023-03-06T06:38:20.891Z,516.00
2023-03-06T06:42:31.960Z,528.00
2023-03-06T06:46:59.252Z,541.00
2023-03-06T06:50:21.580Z,564.00
2023-03-06T06:54:20.985Z,627.00
2023-03-06T06:58:20.891Z,640.00
2023-03-06T07:02:20.919Z,672.00
2023-03-06T07:06:20.423Z,743.00
2023-03-06T07:10:21.225Z,801.00
2023-03-06T07:14:20.417Z,873.00
2023-03-06T07:18:20.303Z,921.00
2023-03-06T07:22:20.249Z,961.00
2023-03-06T07:26:20.210Z,1016.00
2023-03-06T07:30:20.409Z,1104.00
2023-03-06T07:34:20.595Z,1133.00
2023-03-06T07:38:20.748Z,1175.00
2023-03-06T07:42:20.860Z,1211.00
2023-03-06T07:46:21.502Z,1214.00
2023-03-06T07:50:21.426Z,1212.00
2023-03-06T07:54:21.245Z,1232.00
2023-03-06T07:58:21.413Z,714.00
2023-03-06T08:02:21.388Z,813.00
2023-03-06T08:06:21.501Z,761.00
2023-03-06T08:10:21.616Z,780.00
2023-03-06T08:14:21.733Z,850.00
2023-03-06T08:18:21.921Z,887.00
2023-03-06T08:22:22.428Z,959.00
2023-03-06T08:26:22.069Z,1026.00
2023-03-06T08:30:22.109Z,1050.00
2023-03-06T08:34:22.427Z,1098.00
2023-03-06T08:38:22.309Z,1133.00
2023-03-06T08:42:22.385Z,1148.00
2023-03-06T08:46:22.953Z,1192.00
2023-03-06T08:50:22.925Z,1256.00
2023-03-06T08:54:22.963Z,1225.00
2023-03-06T08:58:22.563Z,1211.00
2023-03-06T09:02:23.003Z,1202.00
2023-03-06T09:06:22.636Z,1198.00
2023-03-06T09:10:22.742Z,1187.00
2023-03-06T09:14:22.745Z,1198.00
2023-03-06T09:18:22.852Z,1195.00
2023-03-06T09:22:22.907Z,1217.00
2023-03-06T09:26:28.068Z,1326.00
2023-03-06T09:30:23.959Z,1372.00
2023-03-06T09:34:22.902Z,1353.00
2023-03-06T09:38:22.991Z,1293.00
2023-03-06T09:42:23.006Z,1303.00
2023-03-06T09:46:23.190Z,1455.00
2023-03-06T09:50:23.482Z,1444.00
2023-03-06T09:54:23.456Z,858.00
2023-03-06T09:58:23.471Z,1017.00
2023-03-06T10:02:24.046Z,976.00
2023-03-06T10:06:23.794Z,862.00
2023-03-06T10:10:23.936Z,830.00
2023-03-06T10:14:24.066Z,813.00
2023-03-06T10:18:24.446Z,826.00
2023-03-06T10:22:24.175Z,824.00
2023-03-06T10:26:24.571Z,827.00
2023-03-06T10:30:24.240Z,826.00
2023-03-06T10:34:24.496Z,830.00
2023-03-06T10:38:24.500Z,828.00
2023-03-06T10:42:24.447Z,834.00
2023-03-06T10:46:24.490Z,793.00
2023-03-06T10:50:25.041Z,776.00
2023-03-06T10:54:24.997Z,536.00
2023-03-06T10:58:24.668Z,498.00
2023-03-06T11:02:24.990Z,597.00
2023-03-06T11:06:24.858Z,585.00
2023-03-06T11:10:25.504Z,607.00
2023-03-06T11:14:27.604Z,647.00
2023-03-06T11:18:24.983Z,666.00
2023-03-06T11:22:25.007Z,710.00
2023-03-06T11:26:24.983Z,759.00
2023-03-06T11:30:24.903Z,791.00
2023-03-06T11:34:25.001Z,984.00
2023-03-06T11:38:25.037Z,878.00
2023-03-06T11:42:25.018Z,901.00
2023-03-06T11:46:24.847Z,886.00
2023-03-06T11:50:24.695Z,834.00
2023-03-06T11:54:24.984Z,806.00
2023-03-06T11:58:24.631Z,787.00
2023-03-06T12:02:24.673Z,776.00
2023-03-06T12:06:24.996Z,763.00
2023-03-06T12:10:24.587Z,761.00
2023-03-06T12:14:24.491Z,845.00
2023-03-06T12:18:26.055Z,783.00
2023-03-06T12:22:24.421Z,786.00
2023-03-06T12:26:24.517Z,774.00
2023-03-06T12:30:24.529Z,759.00
2023-03-06T12:34:25.013Z,754.00
2023-03-06T12:38:24.729Z,756.00
2023-03-06T12:42:25.009Z,743.00
2023-03-06T12:46:25.165Z,770.00
2023-03-06T12:50:25.535Z,758.00
2023-03-06T12:54:25.401Z,748.00
2023-03-06T12:58:25.568Z,719.00
2023-03-06T13:02:25.755Z,718.00
2023-03-06T13:06:25.901Z,718.00
2023-03-06T13:10:26.040Z,732.00
2023-03-06T13:14:26.206Z,715.00
2023-03-06T13:18:26.361Z,707.00
2023-03-06T13:22:26.553Z,701.00
2023-03-06T13:26:27.039Z,680.00
2023-03-06T13:30:26.849Z,695.00
2023-03-06T13:34:27.008Z,687.00
2023-03-06T13:38:27.178Z,678.00
2023-03-06T13:42:27.367Z,670.00
2023-03-06T13:46:27.551Z,659.00
2023-03-06T13:50:27.652Z,654.00
2023-03-06T13:54:27.840Z,652.00
2023-03-06T13:58:27.978Z,651.00
2023-03-06T14:02:28.123Z,650.00
2023-03-06T14:06:28.306Z,643.00
2023-03-06T14:10:28.465Z,634.00
2023-03-06T14:14:28.612Z,633.00
2023-03-06T14:18:28.753Z,629.00
2023-03-06T14:22:28.937Z,628.00
2023-03-06T14:26:29.070Z,620.00
2023-03-06T14:30:29.246Z,619.00
2023-03-06T14:34:29.473Z,613.00
2023-03-06T14:38:29.578Z,606.00
2023-03-06T14:42:29.721Z,605.00
2023-03-06T14:46:29.886Z,605.00
2023-03-06T14:50:29.991Z,598.00
2023-03-06T14:54:30.137Z,597.00
2023-03-06T14:58:30.252Z,597.00
2023-03-06T15:02:30.403Z,595.00
2023-03-06T15:06:30.579Z,595.00
2023-03-06T15:10:30.606Z,593.00
2023-03-06T15:14:30.676Z,587.00
2023-03-06T15:18:30.769Z,589.00
2023-03-06T15:22:31.133Z,584.00
2023-03-06T15:26:30.998Z,584.00
2023-03-06T15:30:31.106Z,584.00
2023-03-06T15:34:31.174Z,578.00
2023-03-06T15:38:31.344Z,572.00
2023-03-06T15:42:31.508Z,575.00
2023-03-06T15:46:31.559Z,567.00
2023-03-06T15:50:31.641Z,562.00
2023-03-06T15:54:32.993Z,561.00
2023-03-06T15:58:31.940Z,560.00
2023-03-06T16:02:32.040Z,555.00
2023-03-06T16:06:32.218Z,558.00
2023-03-06T16:10:32.363Z,551.00
2023-03-06T16:14:32.539Z,544.00
2023-03-06T16:18:32.715Z,548.00
2023-03-06T16:22:32.923Z,544.00
2023-03-06T16:26:33.139Z,538.00
2023-03-06T16:30:33.378Z,542.00
2023-03-06T16:34:33.562Z,534.00
2023-03-06T16:38:33.734Z,533.00
2023-03-06T16:42:33.969Z,534.00
2023-03-06T16:46:34.188Z,532.00
2023-03-06T16:50:34.325Z,529.00
2023-03-06T16:54:34.425Z,524.00
2023-03-06T16:58:34.457Z,527.00
2023-03-06T17:02:34.516Z,524.00
2023-03-06T17:06:34.575Z,520.00
2023-03-06T17:10:34.591Z,518.00
2023-03-06T17:14:34.631Z,519.00
2023-03-06T17:18:34.624Z,516.00
2023-03-06T17:22:34.680Z,513.00
2023-03-06T17:26:34.742Z,511.00
2023-03-06T17:30:34.735Z,513.00
2023-03-06T17:34:34.824Z,512.00
2023-03-06T17:38:34.887Z,513.00
2023-03-06T17:42:34.931Z,510.00
2023-03-06T17:46:35.054Z,512.00
2023-03-06T17:50:35.072Z,511.00
2023-03-06T17:54:35.149Z,503.00
2023-03-06T17:58:35.233Z,503.00
2023-03-06T18:02:35.326Z,502.00
2023-03-06T18:06:35.390Z,509.00
2023-03-06T18:10:35.459Z,503.00
2023-03-06T18:14:35.529Z,508.00
2023-03-06T18:18:35.600Z,503.00
2023-03-06T18:22:35.751Z,507.00
2023-03-06T18:26:35.878Z,507.00
2023-03-06T18:30:35.986Z,509.00
2023-03-06T18:34:36.677Z,503.00
2023-03-06T18:38:36.190Z,509.00
2023-03-06T18:42:36.355Z,504.00
2023-03-06T18:46:36.485Z,506.00
2023-03-06T18:50:36.619Z,501.00
2023-03-06T18:54:36.739Z,505.00
2023-03-06T18:58:36.932Z,501.00
2023-03-06T19:02:37.068Z,503.00
2023-03-06T19:06:37.175Z,505.00
2023-03-06T19:10:37.347Z,504.00
2023-03-06T19:14:37.509Z,505.00
2023-03-06T19:18:37.738Z,507.00
2023-03-06T19:22:37.875Z,504.00
2023-03-06T19:26:38.021Z,509.00
2023-03-06T19:30:38.210Z,504.00
2023-03-06T19:34:38.393Z,506.00
2023-03-06T19:38:38.582Z,504.00
2023-03-06T19:42:38.750Z,512.00
2023-03-06T19:46:38.900Z,506.00
2023-03-06T19:50:39.094Z,503.00
2023-03-06T19:54:39.320Z,507.00
2023-03-06T19:58:39.484Z,505.00
2023-03-06T20:02:39.720Z,508.00
2023-03-06T20:06:39.901Z,509.00
2023-03-06T20:10:40.105Z,508.00
2023-03-06T20:14:40.298Z,508.00
2023-03-06T20:18:40.524Z,507.00
2023-03-06T20:22:40.484Z,506.00
2023-03-06T20:26:40.487Z,508.00
2023-03-06T20:30:40.403Z,507.00
2023-03-06T20:34:40.379Z,504.00
2023-03-06T20:38:40.317Z,503.00
2023-03-06T20:42:40.269Z,506.00
2023-03-06T20:46:40.326Z,504.00
2023-03-06T20:50:40.220Z,508.00
2023-03-06T20:54:40.164Z,509.00
2023-03-06T20:58:40.098Z,502.00
2023-03-06T21:02:40.115Z,502.00
2023-03-06T21:06:40.309Z,503.00
2023-03-06T21:10:40.495Z,506.00
2023-03-06T21:14:40.655Z,507.00
2023-03-06T21:18:40.915Z,506.00
2023-03-06T21:22:41.026Z,505.00
2023-03-06T21:26:41.188Z,513.00
2023-03-06T21:30:41.316Z,511.00
2023-03-06T21:34:41.374Z,504.00
2023-03-06T21:38:41.484Z,504.00
2023-03-06T21:42:42.270Z,507.00
2023-03-06T21:46:41.625Z,502.00
2023-03-06T21:50:41.675Z,504.00
2023-03-06T21:54:41.704Z,506.00
2023-03-06T21:58:41.761Z,511.00
2023-03-06T22:02:41.840Z,505.00
2023-03-06T22:06:41.869Z,506.00
2023-03-06T22:10:41.895Z,513.00
2023-03-06T22:14:42.250Z,505.00
2023-03-06T22:18:41.973Z,509.00
2023-03-06T22:22:41.997Z,506.00
2023-03-06T22:26:42.079Z,506.00
2023-03-06T22:30:42.052Z,512.00
2023-03-06T22:34:42.141Z,511.00
2023-03-06T22:38:42.149Z,512.00
2023-03-06T22:42:42.202Z,504.00
2023-03-06T22:46:42.320Z,508.00
2023-03-06T22:50:42.387Z,504.00
2023-03-06T22:54:42.494Z,511.00
2023-03-06T22:58:42.527Z,507.00
2023-03-06T23:02:42.569Z,507.00
2023-03-06T23:06:42.648Z,504.00
2023-03-06T23:10:42.770Z,508.00
2023-03-06T23:14:42.859Z,501.00
2023-03-06T23:18:42.939Z,511.00
2023-03-06T23:22:43.026Z,504.00
2023-03-06T23:26:43.156Z,506.00
2023-03-06T23:30:43.275Z,504.00
2023-03-06T23:34:43.272Z,507.00
2023-03-06T23:38:43.286Z,509.00
2023-03-06T23:42:43.380Z,506.00
2023-03-06T23:46:43.386Z,510.00
2023-03-06T23:50:43.373Z,502.00
2023-03-06T23:54:43.443Z,511.00
2023-03-06T23:58:43.486Z,506.00
